createdAt,value
2022-08-09T00:00:00.202Z,55.19
2022-08-09T00:02:28.792Z,54.50
2022-08-09T00:05:03.725Z,54.43
2022-08-09T00:07:44.628Z,54.85
2022-08-09T00:10:18.212Z,54.61
2022-08-09T00:12:52.552Z,54.81
2022-08-09T00:15:26.635Z,55.19
2022-08-09T00:18:11.547Z,56.26
2022-08-09T00:20:42.503Z,55.22
2022-08-09T00:23:58.352Z,54.60
2022-08-09T00:26:05.084Z,55.18
2022-08-09T00:28:34.576Z,55.55
2022-08-09T00:31:30.580Z,54.97
2022-08-09T00:33:51.819Z,55.54
2022-08-09T00:36:19.967Z,56.81
2022-08-09T00:38:46.896Z,56.35
2022-08-09T00:44:14.813Z,56.15
2022-08-09T00:44:20.129Z,57.34
2022-08-09T00:46:57.320Z,57.17
2022-08-09T00:49:32.031Z,56.16
2022-08-09T00:52:05.408Z,55.46
2022-08-09T00:54:43.146Z,56.09
2022-08-09T00:57:12.110Z,56.78
2022-08-09T00:59:47.194Z,56.18
2022-08-09T01:02:22.313Z,57.78
2022-08-09T01:04:50.262Z,56.82
2022-08-09T01:07:38.030Z,55.89
2022-08-09T01:10:25.831Z,56.10
2022-08-09T01:13:03.591Z,55.42
2022-08-09T01:15:40.943Z,55.55
2022-08-09T01:18:14.297Z,56.50
2022-08-09T01:20:47.229Z,56.61
2022-08-09T01:24:02.149Z,55.36
2022-08-09T01:26:31.027Z,54.61
2022-08-09T01:29:00.767Z,55.44
2022-08-09T01:32:31.361Z,57.35
2022-08-09T01:34:19.864Z,56.95
2022-08-09T01:36:48.952Z,56.83
2022-08-09T01:39:17.748Z,56.61
2022-08-09T01:41:53.505Z,56.49
2022-08-09T01:44:29.168Z,56.20
2022-08-09T01:46:59.311Z,56.29
2022-08-09T01:49:31.995Z,56.94
2022-08-09T01:52:10.871Z,56.36
2022-08-09T01:54:50.826Z,55.37
2022-08-09T01:57:27.283Z,55.27
2022-08-09T02:00:09.120Z,56.05
2022-08-09T02:02:49.550Z,56.86
2022-08-09T02:05:37.987Z,57.01
2022-08-09T02:08:39.387Z,57.01
2022-08-09T02:11:13.406Z,57.60
2022-08-09T02:14:02.075Z,58.01
2022-08-09T02:17:00.023Z,57.54
2022-08-09T02:19:22.827Z,56.39
2022-08-09T02:21:55.903Z,56.06
2022-08-09T02:24:29.731Z,55.71
2022-08-09T02:27:01.878Z,55.96
2022-08-09T02:29:33.870Z,55.69
2022-08-09T02:32:03.900Z,56.12
2022-08-09T02:34:40.140Z,56.85
2022-08-09T02:37:16.340Z,56.17
2022-08-09T02:39:55.318Z,56.64
2022-08-09T02:42:38.521Z,56.91
2022-08-09T02:45:13.400Z,57.43
2022-08-09T02:47:57.442Z,57.67
2022-08-09T02:51:02.801Z,55.84
2022-08-09T02:53:37.058Z,55.88
2022-08-09T02:56:06.219Z,56.89
2022-08-09T02:58:36.433Z,56.48
2022-08-09T03:01:08.291Z,58.20
2022-08-09T03:04:16.962Z,61.15
2022-08-09T03:06:27.871Z,58.91
2022-08-09T03:08:57.775Z,57.88
2022-08-09T03:11:29.712Z,57.19
2022-08-09T03:14:13.659Z,57.71
2022-08-09T03:16:47.734Z,57.43
2022-08-09T03:19:59.653Z,57.61
2022-08-09T03:22:11.764Z,57.74
2022-08-09T03:24:52.220Z,57.78
2022-08-09T03:27:21.352Z,57.44
2022-08-09T03:29:57.073Z,57.54
2022-08-09T03:32:26.099Z,57.46
2022-08-09T03:34:53.862Z,58.34
2022-08-09T03:37:56.620Z,57.80
2022-08-09T03:40:08.823Z,57.38
2022-08-09T03:42:39.853Z,57.60
2022-08-09T03:45:10.923Z,58.14
2022-08-09T03:47:41.943Z,58.36
2022-08-09T03:50:14.316Z,58.21
2022-08-09T03:52:57.980Z,58.81
2022-08-09T03:55:27.110Z,59.07
2022-08-09T03:58:03.202Z,59.17
2022-08-09T04:00:33.266Z,58.63
2022-08-09T04:03:01.043Z,58.62
2022-08-09T04:05:28.253Z,58.28
2022-08-09T04:07:57.202Z,59.68
2022-08-09T04:10:29.368Z,60.28
2022-08-09T04:12:58.142Z,59.23
2022-08-09T04:15:38.730Z,58.48
2022-08-09T04:18:16.473Z,58.17
2022-08-09T04:20:46.132Z,59.22
2022-08-09T04:23:16.897Z,58.49
2022-08-09T04:25:49.623Z,58.69
2022-08-09T04:28:33.978Z,58.79
2022-08-09T04:31:05.887Z,58.46
2022-08-09T04:33:52.182Z,58.18
2022-08-09T04:36:24.986Z,58.94
2022-08-09T04:38:52.915Z,59.57
2022-08-09T04:41:23.592Z,60.23
2022-08-09T04:44:05.828Z,60.21
2022-08-09T04:46:56.924Z,60.16
2022-08-09T04:49:22.329Z,61.53
2022-08-09T04:52:09.689Z,59.52
2022-08-09T04:54:37.052Z,60.11
2022-08-09T04:57:04.242Z,59.70
2022-08-09T04:59:31.545Z,59.42
2022-08-09T05:01:58.714Z,59.01
2022-08-09T05:04:31.518Z,59.31
2022-08-09T05:06:58.700Z,58.95
2022-08-09T05:09:42.255Z,58.64
2022-08-09T05:12:12.690Z,58.85
2022-08-09T05:14:41.238Z,59.06
2022-08-09T05:18:36.517Z,59.30
2022-08-09T05:19:56.973Z,58.95
2022-08-09T05:23:50.955Z,59.56
2022-08-09T05:25:11.020Z,59.52
2022-08-09T05:27:44.381Z,60.17
2022-08-09T05:30:13.109Z,59.78
2022-08-09T05:32:41.964Z,60.36
2022-08-09T05:35:11.358Z,60.29
2022-08-09T05:37:47.536Z,60.95
2022-08-09T05:40:15.384Z,61.40
2022-08-09T05:42:42.873Z,61.78
2022-08-09T05:45:10.617Z,61.49
2022-08-09T05:47:52.225Z,61.60
2022-08-09T05:50:36.238Z,61.25
2022-08-09T05:53:21.765Z,62.05
2022-08-09T05:55:58.287Z,60.68
2022-08-09T05:58:24.963Z,61.59
2022-08-09T06:00:53.423Z,62.14
2022-08-09T06:03:20.684Z,61.60
2022-08-09T06:05:54.782Z,63.12
2022-08-09T06:08:31.022Z,66.51
2022-08-09T06:10:59.225Z,66.60
2022-08-09T06:13:28.640Z,66.34
2022-08-09T06:16:00.512Z,63.70
2022-08-09T06:18:28.411Z,64.92
2022-08-09T06:20:57.808Z,64.35
2022-08-09T06:23:55.655Z,63.76
2022-08-09T06:26:15.276Z,64.09
2022-08-09T06:29:00.591Z,62.47
2022-08-09T06:31:39.828Z,64.07
2022-08-09T06:34:18.718Z,63.46
2022-08-09T06:36:45.932Z,61.69
2022-08-09T06:39:13.610Z,62.38
2022-08-09T06:42:08.941Z,61.86
2022-08-09T06:44:28.140Z,62.36
2022-08-09T06:46:54.952Z,61.64
2022-08-09T06:49:44.558Z,60.91
2022-08-09T06:52:10.232Z,61.23
2022-08-09T06:54:39.050Z,59.63
2022-08-09T06:57:08.400Z,60.12
2022-08-09T07:00:50.917Z,60.36
2022-08-09T07:02:22.072Z,61.45
2022-08-09T07:04:56.249Z,60.03
2022-08-09T07:08:00.766Z,60.71
2022-08-09T07:10:24.427Z,58.64
2022-08-09T07:12:57.052Z,58.14
2022-08-09T07:16:38.484Z,58.39
2022-08-09T07:18:11.365Z,58.45
2022-08-09T07:20:41.012Z,58.98
2022-08-09T07:23:18.973Z,60.52
2022-08-09T07:25:47.406Z,60.54
2022-08-09T07:28:19.265Z,62.18
2022-08-09T07:30:54.102Z,62.94
2022-08-09T07:33:21.978Z,60.62
2022-08-09T07:35:54.275Z,59.72
2022-08-09T07:38:23.328Z,59.72
2022-08-09T07:41:08.110Z,59.32
2022-08-09T07:43:49.561Z,58.40
2022-08-09T07:46:19.378Z,58.08
2022-08-09T07:48:46.620Z,56.41
2022-08-09T07:52:06.048Z,55.68
2022-08-09T07:54:12.391Z,55.88
2022-08-09T07:56:49.286Z,55.74
2022-08-09T07:59:25.367Z,55.18
2022-08-09T08:02:02.388Z,54.50
2022-08-09T08:04:32.233Z,55.12
2022-08-09T08:07:15.231Z,53.83
2022-08-09T08:09:55.089Z,54.70
2022-08-09T08:12:43.623Z,53.32
2022-08-09T08:15:17.171Z,53.54
2022-08-09T08:17:54.133Z,52.90
2022-08-09T08:20:27.235Z,53.17
2022-08-09T08:23:01.737Z,53.17
2022-08-09T08:25:44.736Z,52.87
2022-08-09T08:28:15.285Z,53.02
2022-08-09T08:30:44.159Z,51.98
2022-08-09T08:33:12.061Z,52.38
2022-08-09T08:35:58.500Z,51.69
2022-08-09T08:38:30.689Z,51.39
2022-08-09T08:40:58.788Z,50.30
2022-08-09T08:43:27.751Z,49.67
2022-08-09T08:46:10.093Z,49.94
2022-08-09T08:48:51.235Z,48.88
2022-08-09T08:51:21.372Z,49.24
2022-08-09T08:54:03.881Z,48.80
2022-08-09T08:56:35.314Z,47.34
2022-08-09T08:59:19.016Z,48.20
2022-08-09T09:01:52.079Z,47.35
2022-08-09T09:04:26.801Z,47.99
2022-08-09T09:06:57.452Z,47.92
2022-08-09T09:09:58.785Z,47.78
2022-08-09T09:12:17.174Z,47.02
2022-08-09T09:14:45.023Z,46.81
2022-08-09T09:17:13.041Z,45.72
2022-08-09T09:19:44.647Z,46.36
2022-08-09T09:22:26.731Z,44.60
2022-08-09T09:25:08.584Z,45.33
2022-08-09T09:28:06.519Z,44.55
2022-08-09T09:30:47.371Z,45.34
2022-08-09T09:33:16.342Z,43.91
2022-08-09T09:36:01.487Z,42.05
2022-08-09T09:38:44.163Z,42.81
2022-08-09T09:41:28.002Z,41.49
2022-08-09T09:44:12.856Z,42.35
2022-08-09T09:46:52.479Z,41.31
2022-08-09T09:49:49.763Z,41.85
2022-08-09T09:52:16.353Z,41.87
2022-08-09T09:55:24.137Z,40.57
2022-08-09T09:58:16.734Z,40.28
2022-08-09T10:00:55.095Z,39.23
2022-08-09T10:03:57.271Z,38.87
2022-08-09T10:06:42.585Z,38.64
2022-08-09T10:09:22.301Z,38.72
2022-08-09T10:12:11.375Z,38.29
2022-08-09T10:14:48.010Z,37.79
2022-08-09T10:17:51.417Z,37.18
2022-08-09T10:20:32.485Z,36.45
2022-08-09T10:23:23.802Z,35.23
2022-08-09T10:26:06.796Z,35.40
2022-08-09T10:28:40.274Z,35.23
2022-08-09T10:34:11.424Z,36.46
2022-08-09T10:36:50.225Z,35.04
2022-08-09T10:39:19.240Z,35.57
2022-08-09T10:41:47.738Z,34.51
2022-08-09T10:44:18.976Z,34.67
2022-08-09T10:47:03.845Z,32.83
2022-08-09T10:49:51.616Z,33.40
2022-08-09T10:52:33.463Z,31.24
2022-08-09T10:55:49.364Z,33.14
2022-08-09T10:58:37.378Z,32.29
2022-08-09T11:03:02.429Z,31.90
2022-08-09T11:04:19.714Z,31.57
2022-08-09T11:07:03.808Z,32.20
2022-08-09T11:09:47.995Z,31.55
2022-08-09T11:12:17.737Z,32.04
2022-08-09T11:14:51.417Z,31.75
2022-08-09T11:17:19.351Z,31.92
2022-08-09T11:20:23.043Z,30.97
2022-08-09T11:22:55.462Z,31.99
2022-08-09T11:25:45.202Z,31.34
2022-08-09T11:28:34.052Z,30.22
2022-08-09T11:31:39.865Z,30.81
2022-08-09T11:34:17.849Z,29.08
2022-08-09T11:36:45.347Z,31.42
2022-08-09T11:39:12.079Z,30.27
2022-08-09T11:41:40.670Z,29.34
2022-08-09T11:44:08.661Z,29.59
2022-08-09T11:46:57.042Z,29.67
2022-08-09T11:50:52.390Z,29.68
2022-08-09T11:53:21.019Z,29.99
2022-08-09T11:55:51.950Z,30.00
2022-08-09T11:58:19.705Z,29.19
2022-08-09T12:01:00.720Z,29.95
2022-08-09T12:03:54.824Z,29.50
2022-08-09T12:06:24.702Z,28.82
2022-08-09T12:08:55.945Z,29.13
2022-08-09T12:11:26.447Z,29.63
2022-08-09T12:14:06.951Z,29.54
2022-08-09T12:16:40.782Z,28.81
2022-08-09T12:19:09.959Z,29.21
2022-08-09T12:21:50.157Z,28.91
2022-08-09T12:24:24.425Z,29.40
2022-08-09T12:29:00.306Z,28.26
2022-08-09T12:30:02.102Z,29.17
2022-08-09T12:32:41.374Z,28.51
2022-08-09T12:35:10.759Z,28.67
2022-08-09T12:37:44.184Z,28.55
2022-08-09T12:40:18.882Z,28.68
2022-08-09T12:42:50.477Z,28.15
2022-08-09T12:45:34.507Z,27.69
2022-08-09T12:48:20.473Z,28.64
2022-08-09T12:50:57.772Z,28.44
2022-08-09T12:53:36.719Z,28.69
2022-08-09T12:56:42.880Z,26.85
2022-08-09T12:59:06.094Z,26.03
2022-08-09T13:01:32.925Z,27.57
2022-08-09T13:04:07.042Z,27.01
2022-08-09T13:06:54.085Z,27.57
2022-08-09T13:09:21.467Z,27.33
2022-08-09T13:11:50.571Z,27.42
2022-08-09T13:14:40.940Z,26.29
2022-08-09T13:17:16.113Z,25.79
2022-08-09T13:20:08.643Z,26.57
2022-08-09T13:23:00.960Z,27.29
2022-08-09T13:25:20.920Z,25.79
2022-08-09T13:27:55.468Z,26.82
2022-08-09T13:30:49.371Z,26.44
2022-08-09T13:33:24.828Z,26.03
2022-08-09T13:36:38.603Z,25.83
2022-08-09T13:39:01.200Z,25.25
2022-08-09T13:41:59.114Z,25.89
2022-08-09T13:44:21.660Z,25.64
2022-08-09T13:47:19.361Z,25.75
2022-08-09T13:49:39.647Z,26.05
2022-08-09T13:52:23.554Z,25.13
2022-08-09T13:55:00.115Z,25.85
2022-08-09T13:57:40.156Z,25.19
2022-08-09T14:00:12.071Z,24.67
2022-08-09T14:02:42.845Z,25.72
2022-08-09T14:05:56.878Z,25.51
2022-08-09T14:08:13.455Z,25.50
2022-08-09T14:10:49.087Z,24.62
2022-08-09T14:13:21.872Z,24.32
2022-08-09T14:16:06.984Z,25.53
2022-08-09T14:18:36.260Z,24.46
2022-08-09T14:21:03.503Z,26.14
2022-08-09T14:23:39.945Z,25.57
2022-08-09T14:26:20.541Z,24.77
2022-08-09T14:28:47.568Z,25.22
2022-08-09T14:31:14.307Z,25.14
2022-08-09T14:33:42.168Z,24.61
2022-08-09T14:36:19.908Z,23.94
2022-08-09T14:38:52.799Z,24.69
2022-08-09T14:41:26.693Z,23.83
2022-08-09T14:44:02.886Z,25.00
2022-08-09T14:46:55.821Z,25.11
2022-08-09T14:49:18.524Z,24.10
2022-08-09T14:51:50.136Z,24.61
2022-08-09T14:54:16.907Z,24.83
2022-08-09T14:56:57.979Z,25.12
2022-08-09T14:59:27.277Z,24.78
2022-08-09T15:01:55.659Z,24.16
2022-08-09T15:04:23.465Z,24.72
2022-08-09T15:06:51.359Z,24.50
2022-08-09T15:10:03.556Z,24.98
2022-08-09T15:12:08.243Z,25.04
2022-08-09T15:14:38.160Z,24.91
2022-08-09T15:17:09.289Z,24.75
2022-08-09T15:19:37.051Z,24.89
2022-08-09T15:22:23.590Z,24.23
2022-08-09T15:24:59.656Z,25.32
2022-08-09T15:27:30.385Z,24.67
2022-08-09T15:30:56.298Z,24.87
2022-08-09T15:33:01.639Z,24.43
2022-08-09T15:35:40.902Z,24.68
2022-08-09T15:38:12.193Z,24.09
2022-08-09T15:40:43.540Z,25.08
2022-08-09T15:43:13.743Z,25.09
2022-08-09T15:45:52.018Z,25.03
2022-08-09T15:48:30.627Z,25.27
2022-08-09T15:50:59.976Z,25.39
2022-08-09T15:54:04.780Z,24.30
2022-08-09T15:56:29.092Z,25.17
2022-08-09T15:58:58.678Z,25.15
2022-08-09T16:01:26.062Z,26.36
2022-08-09T16:03:52.797Z,25.64
2022-08-09T16:06:34.791Z,26.06
2022-08-09T16:09:05.218Z,26.08
2022-08-09T16:11:33.150Z,25.36
2022-08-09T16:14:03.274Z,25.32
2022-08-09T16:16:34.679Z,26.06
2022-08-09T16:19:04.571Z,26.32
2022-08-09T16:21:31.598Z,26.91
2022-08-09T16:24:02.732Z,26.21
2022-08-09T16:26:34.555Z,26.63
2022-08-09T16:29:14.127Z,26.80
2022-08-09T16:32:19.527Z,25.96
2022-08-09T16:34:54.512Z,26.46
2022-08-09T16:37:50.609Z,26.42
2022-08-09T16:40:08.700Z,27.54
2022-08-09T16:42:36.160Z,27.49
2022-08-09T16:45:05.335Z,27.39
2022-08-09T16:48:40.669Z,27.63
2022-08-09T16:50:31.145Z,27.74
2022-08-09T16:53:01.849Z,27.93
2022-08-09T16:55:31.587Z,28.11
2022-08-09T16:58:16.934Z,28.28
2022-08-09T17:00:44.007Z,28.34
2022-08-09T17:03:21.655Z,28.33
2022-08-09T17:06:03.509Z,28.81
2022-08-09T17:08:43.017Z,29.25
2022-08-09T17:11:40.988Z,29.79
2022-08-09T17:14:25.995Z,29.70
2022-08-09T17:17:00.216Z,30.07
2022-08-09T17:19:47.128Z,30.10
2022-08-09T17:22:24.051Z,30.38
2022-08-09T17:24:55.920Z,30.23
2022-08-09T17:27:32.281Z,31.01
2022-08-09T17:29:58.958Z,31.00
2022-08-09T17:32:26.702Z,31.00
2022-08-09T17:35:11.202Z,31.24
2022-08-09T17:38:12.905Z,31.13
2022-08-09T17:40:32.745Z,31.41
2022-08-09T17:43:10.901Z,31.44
2022-08-09T17:46:03.170Z,31.15
2022-08-09T17:48:38.845Z,31.23
2022-08-09T17:51:18.669Z,31.46
2022-08-09T17:53:52.323Z,31.55
2022-08-09T17:56:35.969Z,31.58
2022-08-09T17:59:09.057Z,31.79
2022-08-09T18:02:03.702Z,31.29
2022-08-09T18:04:25.292Z,31.10
2022-08-09T18:06:55.010Z,31.07
2022-08-09T18:09:23.569Z,30.80
2022-08-09T18:12:14.864Z,30.84
2022-08-09T18:14:49.726Z,30.93
2022-08-09T18:17:18.939Z,30.99
2022-08-09T18:20:59.614Z,31.00
2022-08-09T18:22:50.888Z,30.56
2022-08-09T18:25:18.077Z,30.63
2022-08-09T18:28:03.733Z,31.40
2022-08-09T18:30:38.593Z,31.10
2022-08-09T18:33:15.344Z,31.06
2022-08-09T18:35:59.104Z,32.37
2022-08-09T18:38:27.334Z,32.37
2022-08-09T18:40:55.528Z,33.21
2022-08-09T18:43:23.266Z,32.97
2022-08-09T18:46:46.906Z,33.15
2022-08-09T18:48:36.899Z,32.71
2022-08-09T18:51:03.661Z,32.59
2022-08-09T18:54:01.939Z,33.03
2022-08-09T18:56:27.955Z,32.88
2022-08-09T18:58:56.724Z,34.47
2022-08-09T19:01:24.171Z,33.60
2022-08-09T19:04:01.599Z,33.38
2022-08-09T19:06:33.946Z,33.45
2022-08-09T19:09:02.922Z,33.50
2022-08-09T19:11:37.640Z,33.99
2022-08-09T19:14:06.538Z,33.42
2022-08-09T19:16:37.980Z,33.87
2022-08-09T19:19:21.240Z,33.69
2022-08-09T19:22:04.704Z,33.94
2022-08-09T19:24:39.359Z,35.03
2022-08-09T19:27:20.632Z,34.67
2022-08-09T19:30:23.016Z,35.66
2022-08-09T19:32:36.725Z,35.77
2022-08-09T19:35:04.473Z,36.35
2022-08-09T19:37:40.947Z,35.83
2022-08-09T19:40:19.333Z,35.88
2022-08-09T19:42:49.500Z,36.13
2022-08-09T19:45:16.999Z,36.66
2022-08-09T19:47:44.760Z,37.27
2022-08-09T19:50:50.857Z,36.93
2022-08-09T19:52:59.689Z,36.76
2022-08-09T19:55:53.028Z,37.43
2022-08-09T19:58:17.729Z,37.48
2022-08-09T20:00:56.708Z,37.35
2022-08-09T20:04:09.657Z,37.56
2022-08-09T20:06:24.017Z,37.97
2022-08-09T20:08:56.924Z,37.92
2022-08-09T20:11:25.913Z,39.34
2022-08-09T20:13:54.215Z,38.84
2022-08-09T20:16:33.818Z,39.59
2022-08-09T20:19:49.209Z,39.75
2022-08-09T20:21:56.588Z,40.42
2022-08-09T20:24:29.433Z,39.18
2022-08-09T20:27:01.663Z,39.64
2022-08-09T20:29:36.988Z,41.29
2022-08-09T20:32:31.224Z,40.90
2022-08-09T20:34:54.083Z,40.36
2022-08-09T20:37:21.572Z,40.46
2022-08-09T20:40:14.912Z,40.99
2022-08-09T20:42:38.102Z,41.58
2022-08-09T20:45:59.498Z,41.37
2022-08-09T20:47:53.152Z,41.24
2022-08-09T20:50:47.991Z,41.69
2022-08-09T20:53:35.259Z,42.19
2022-08-09T20:56:00.946Z,43.89
2022-08-09T20:58:32.832Z,42.80
2022-08-09T21:01:13.564Z,41.96
2022-08-09T21:05:48.461Z,42.34
2022-08-09T21:06:27.288Z,42.34
2022-08-09T21:08:58.217Z,42.55
2022-08-09T21:14:12.259Z,42.83
2022-08-09T21:16:38.933Z,42.58
2022-08-09T21:20:18.240Z,42.61
2022-08-09T21:21:56.041Z,44.10
2022-08-09T21:24:28.931Z,44.28
2022-08-09T21:27:10.215Z,44.24
2022-08-09T21:29:48.793Z,45.09
2022-08-09T21:32:18.668Z,44.48
2022-08-09T21:34:49.098Z,44.11
2022-08-09T21:37:18.187Z,45.26
2022-08-09T21:39:45.443Z,45.30
2022-08-09T21:42:17.233Z,45.32
2022-08-09T21:44:44.475Z,45.27
2022-08-09T21:47:14.147Z,45.34
2022-08-09T21:49:45.284Z,45.30
2022-08-09T21:52:17.793Z,44.90
2022-08-09T21:54:59.554Z,43.63
2022-08-09T21:57:38.867Z,44.85
2022-08-09T22:00:25.924Z,44.15
2022-08-09T22:02:58.810Z,44.94
2022-08-09T22:05:35.817Z,44.73
2022-08-09T22:08:14.071Z,46.05
2022-08-09T22:11:48.843Z,46.35
2022-08-09T22:13:35.418Z,47.09
2022-08-09T22:16:07.205Z,45.57
2022-08-09T22:18:34.669Z,46.77
2022-08-09T22:21:01.426Z,46.94
2022-08-09T22:23:35.350Z,45.84
2022-08-09T22:26:34.209Z,46.08
2022-08-09T22:29:06.792Z,46.22
2022-08-09T22:31:35.812Z,47.01
2022-08-09T22:34:02.557Z,47.16
2022-08-09T22:36:29.233Z,46.83
2022-08-09T22:39:20.830Z,46.36
2022-08-09T22:41:59.384Z,46.57
2022-08-09T22:44:32.726Z,46.77
2022-08-09T22:48:10.230Z,47.15
2022-08-09T22:49:47.410Z,47.76
2022-08-09T22:52:19.723Z,47.79
2022-08-09T22:54:47.402Z,47.61
2022-08-09T22:57:14.783Z,47.85
2022-08-09T22:59:58.413Z,47.35
2022-08-09T23:02:27.483Z,47.79
2022-08-09T23:04:55.393Z,48.47
2022-08-09T23:08:22.013Z,48.13
2022-08-09T23:10:31.432Z,48.21
2022-08-09T23:12:58.982Z,48.89
2022-08-09T23:15:26.590Z,48.21
2022-08-09T23:17:53.598Z,48.47
2022-08-09T23:20:20.441Z,47.83
2022-08-09T23:22:47.135Z,48.77
2022-08-09T23:25:13.994Z,49.50
2022-08-09T23:28:09.338Z,49.41
2022-08-09T23:30:28.189Z,49.50
2022-08-09T23:32:54.830Z,49.12
2022-08-09T23:35:21.488Z,48.94
2022-08-09T23:37:48.127Z,48.89
2022-08-09T23:40:14.836Z,50.52
2022-08-09T23:42:41.492Z,49.90
2022-08-09T23:45:09.061Z,49.51
2022-08-09T23:47:36.267Z,50.13
2022-08-09T23:50:03.951Z,50.44
2022-08-09T23:52:30.954Z,50.56
2022-08-09T23:54:58.898Z,50.10
2022-08-09T23:57:25.743Z,49.50
